Time;durP1;ratioP1;P1;durP2;ratioP2;P2;SDS_P1;SDS_P2;PMS_P1;PMS_P2;Temp;Humidity;BMP_temperature;BMP_pressure;BME280_temperature;BME280_humidity;BME280_pressure;Samples;Min_cycle;Max_cycle;Signal;HPM_P1;HPM_P2
2022/05/17 00:00:25;;;;;;;12.85;4.82;;;;;;;;;;5007459;28;20495;-71
2022/05/17 00:02:51;;;;;;;12.55;5.65;;;;;;;;;;5011392;28;20645;-70
2022/05/17 00:05:16;;;;;;;7.30;4.63;;;;;;;;;;5011461;28;20635;-70
2022/05/17 00:07:41;;;;;;;8.38;4.53;;;;;;;;;;5013370;28;20175;-70
2022/05/17 00:10:07;;;;;;;8.75;4.72;;;;;;;;;;5023739;28;20632;-70
2022/05/17 00:12:32;;;;;;;6.50;3.90;;;;;;;;;;5010793;28;20783;-70
2022/05/17 00:14:58;;;;;;;7.90;4.68;;;;;;;;;;5011883;28;20171;-70
2022/05/17 00:17:23;;;;;;;8.30;5.15;;;;;;;;;;5018020;28;20652;-70
2022/05/17 00:19:48;;;;;;;7.13;4.32;;;;;;;;;;5007838;28;20195;-71
2022/05/17 00:22:13;;;;;;;7.70;4.60;;;;;;;;;;5009509;28;20257;-70
2022/05/17 00:24:39;;;;;;;6.38;4.30;;;;;;;;;;5008619;28;20178;-70
2022/05/17 00:27:04;;;;;;;10.77;5.03;;;;;;;;;;5009899;28;20618;-71
2022/05/17 00:29:29;;;;;;;7.07;4.20;;;;;;;;;;5008982;28;20190;-70
2022/05/17 00:31:54;;;;;;;8.02;5.00;;;;;;;;;;5009277;28;20199;-70
2022/05/17 00:34:20;;;;;;;10.02;5.15;;;;;;;;;;5009002;28;20193;-70
2022/05/17 00:36:45;;;;;;;9.48;5.05;;;;;;;;;;5003102;28;20596;-70
2022/05/17 00:39:10;;;;;;;9.65;5.10;;;;;;;;;;5008060;28;20183;-71
2022/05/17 00:41:36;;;;;;;10.80;4.95;;;;;;;;;;5010164;28;20714;-70
2022/05/17 00:46:48;;;;;;;8.82;5.00;;;;;;;;;;5017787;28;20222;-70
2022/05/17 00:49:39;;;;;;;10.13;5.43;;;;;;;;;;5013364;28;20209;-70
2022/05/17 00:52:09;;;;;;;9.07;4.78;;;;;;;;;;5006198;28;20289;-70
2022/05/17 00:54:35;;;;;;;11.05;5.38;;;;;;;;;;5015318;28;20174;-70
2022/05/17 00:57:00;;;;;;;11.73;5.45;;;;;;;;;;5015823;28;20585;-71
2022/05/17 00:59:25;;;;;;;7.22;4.72;;;;;;;;;;5011088;28;20187;-70
2022/05/17 01:01:51;;;;;;;11.45;5.32;;;;;;;;;;5012775;28;20831;-70
2022/05/17 01:04:18;;;;;;;7.95;4.70;;;;;;;;;;5013929;28;20327;-70
2022/05/17 01:06:46;;;;;;;11.30;4.85;;;;;;;;;;5013056;28;20189;-71
2022/05/17 01:09:12;;;;;;;8.73;4.35;;;;;;;;;;5014903;28;20664;-70
2022/05/17 01:11:38;;;;;;;12.80;5.25;;;;;;;;;;5009290;28;20211;-71
2022/05/17 01:16:47;;;;;;;7.45;5.05;;;;;;;;;;5013026;28;20229;-70
2022/05/17 01:19:13;;;;;;;7.18;4.85;;;;;;;;;;5010631;28;20266;-71
2022/05/17 01:21:38;;;;;;;7.25;4.05;;;;;;;;;;5013667;28;20296;-70
2022/05/17 01:24:03;;;;;;;8.07;4.78;;;;;;;;;;5013854;28;20175;-70
2022/05/17 01:26:30;;;;;;;6.78;4.65;;;;;;;;;;5014087;28;20232;-70
2022/05/17 01:28:55;;;;;;;9.38;4.50;;;;;;;;;;5012551;28;20213;-70
2022/05/17 01:31:20;;;;;;;12.82;5.53;;;;;;;;;;5017543;28;20202;-70
2022/05/17 01:33:46;;;;;;;6.03;4.68;;;;;;;;;;5013970;28;20282;-71
2022/05/17 01:36:13;;;;;;;8.55;4.50;;;;;;;;;;5011297;28;20214;-71
2022/05/17 01:38:39;;;;;;;11.00;5.32;;;;;;;;;;5015988;28;20175;-70
2022/05/17 01:41:04;;;;;;;6.72;4.85;;;;;;;;;;5013483;28;20283;-70
2022/05/17 01:43:29;;;;;;;5.72;4.38;;;;;;;;;;5035507;28;20178;-70
2022/05/17 01:45:55;;;;;;;8.02;5.00;;;;;;;;;;5011622;28;20191;-70
2022/05/17 01:48:20;;;;;;;7.50;5.30;;;;;;;;;;5018179;28;20183;-70
2022/05/17 01:50:45;;;;;;;14.13;6.05;;;;;;;;;;5016600;28;20217;-70
2022/05/17 01:53:11;;;;;;;6.32;5.18;;;;;;;;;;5013029;28;20175;-70
2022/05/17 01:55:36;;;;;;;9.82;4.88;;;;;;;;;;5012664;28;20716;-71
2022/05/17 01:58:02;;;;;;;7.35;4.85;;;;;;;;;;5013362;28;20237;-70
2022/05/17 02:00:27;;;;;;;5.88;4.38;;;;;;;;;;5011463;28;20697;-71
2022/05/17 02:02:53;;;;;;;8.33;5.00;;;;;;;;;;5011153;28;20570;-70
2022/05/17 02:05:19;;;;;;;4.72;4.28;;;;;;;;;;5012019;28;20511;-71
2022/05/17 02:07:44;;;;;;;8.18;4.97;;;;;;;;;;5010729;28;20594;-71
2022/05/17 02:10:10;;;;;;;7.15;4.80;;;;;;;;;;5012369;28;20209;-71
2022/05/17 02:12:35;;;;;;;5.80;4.60;;;;;;;;;;5014079;28;20735;-70
2022/05/17 02:15:00;;;;;;;7.47;5.15;;;;;;;;;;5010607;28;20187;-70
2022/05/17 02:17:26;;;;;;;6.95;4.88;;;;;;;;;;5017012;28;20182;-71
2022/05/17 02:19:51;;;;;;;7.53;4.55;;;;;;;;;;5018601;28;20179;-70
2022/05/17 02:22:16;;;;;;;8.95;5.18;;;;;;;;;;5011172;28;22235;-71
2022/05/17 02:24:41;;;;;;;8.45;5.50;;;;;;;;;;5011887;28;20308;-71
2022/05/17 02:27:06;;;;;;;8.50;5.03;;;;;;;;;;5013912;28;20537;-70
2022/05/17 02:29:31;;;;;;;9.35;5.80;;;;;;;;;;5014498;28;20460;-72
2022/05/17 02:31:57;;;;;;;11.30;5.38;;;;;;;;;;5017859;28;20261;-71
2022/05/17 02:34:22;;;;;;;12.90;6.70;;;;;;;;;;5011565;28;20233;-71
2022/05/17 02:36:48;;;;;;;9.88;6.35;;;;;;;;;;5012924;28;20175;-70
2022/05/17 02:39:13;;;;;;;11.65;6.80;;;;;;;;;;5021563;28;20684;-72
2022/05/17 02:41:38;;;;;;;12.43;6.28;;;;;;;;;;5009510;28;20250;-70
2022/05/17 02:44:04;;;;;;;8.68;6.07;;;;;;;;;;5011387;28;20232;-69
2022/05/17 02:46:30;;;;;;;10.18;7.05;;;;;;;;;;5010362;28;20557;-69
2022/05/17 02:48:55;;;;;;;11.15;6.45;;;;;;;;;;5013480;28;20199;-70
2022/05/17 02:51:21;;;;;;;10.45;6.65;;;;;;;;;;5007614;28;20213;-69
2022/05/17 02:53:46;;;;;;;6.60;5.43;;;;;;;;;;5009711;28;20182;-70
2022/05/17 02:56:12;;;;;;;6.70;5.72;;;;;;;;;;5011205;28;20187;-70
2022/05/17 02:58:37;;;;;;;7.68;5.47;;;;;;;;;;5011100;28;20661;-69
2022/05/17 03:01:03;;;;;;;7.40;5.85;;;;;;;;;;5010622;28;20241;-69
2022/05/17 03:03:29;;;;;;;9.95;6.95;;;;;;;;;;5011832;28;20218;-69
2022/05/17 03:05:54;;;;;;;10.43;6.60;;;;;;;;;;5012168;28;20564;-70
2022/05/17 03:08:19;;;;;;;10.43;7.25;;;;;;;;;;5026416;28;20186;-69
2022/05/17 03:10:44;;;;;;;8.85;6.40;;;;;;;;;;5012174;28;20603;-70
2022/05/17 03:13:11;;;;;;;8.40;6.88;;;;;;;;;;5012685;28;20171;-69
2022/05/17 03:15:36;;;;;;;10.88;7.75;;;;;;;;;;5025606;28;20704;-70
2022/05/17 03:18:01;;;;;;;12.75;7.47;;;;;;;;;;5010520;28;20266;-70
2022/05/17 03:20:26;;;;;;;9.48;7.60;;;;;;;;;;5010800;28;20684;-70
2022/05/17 03:22:51;;;;;;;12.13;8.45;;;;;;;;;;5015073;28;20277;-72
2022/05/17 03:25:17;;;;;;;11.55;8.63;;;;;;;;;;5013215;28;20585;-72
2022/05/17 03:27:42;;;;;;;13.05;7.82;;;;;;;;;;5014498;28;20170;-70
2022/05/17 03:30:07;;;;;;;9.77;6.93;;;;;;;;;;5011999;28;20210;-71
2022/05/17 03:32:32;;;;;;;11.13;7.50;;;;;;;;;;5012166;28;20187;-70
2022/05/17 03:34:58;;;;;;;11.40;7.32;;;;;;;;;;5011330;28;20214;-70
2022/05/17 03:37:23;;;;;;;12.80;7.38;;;;;;;;;;5009836;28;20733;-70
2022/05/17 03:39:48;;;;;;;13.85;7.22;;;;;;;;;;5010958;28;20202;-70
2022/05/17 03:42:13;;;;;;;12.98;7.68;;;;;;;;;;5011351;28;20245;-70
2022/05/17 03:44:39;;;;;;;9.88;6.65;;;;;;;;;;5010825;28;20187;-71
2022/05/17 03:47:05;;;;;;;10.32;7.10;;;;;;;;;;5012086;28;20179;-71
2022/05/17 03:49:30;;;;;;;9.93;6.97;;;;;;;;;;5010188;28;20210;-72
2022/05/17 03:51:55;;;;;;;6.70;5.90;;;;;;;;;;5008941;28;20210;-70
2022/05/17 03:54:22;;;;;;;8.98;5.85;;;;;;;;;;5010060;28;20324;-70
2022/05/17 03:56:47;;;;;;;9.82;6.75;;;;;;;;;;5024314;28;20762;-71
2022/05/17 03:59:12;;;;;;;7.63;5.88;;;;;;;;;;5009689;28;20179;-70
2022/05/17 04:01:37;;;;;;;6.75;6.05;;;;;;;;;;5009761;28;20230;-70
2022/05/17 04:04:03;;;;;;;10.38;6.47;;;;;;;;;;5014386;28;20649;-70
2022/05/17 04:06:28;;;;;;;9.93;6.88;;;;;;;;;;5012595;28;20206;-70
2022/05/17 04:08:53;;;;;;;15.18;8.20;;;;;;;;;;5007356;28;20672;-70
2022/05/17 04:11:18;;;;;;;8.93;6.20;;;;;;;;;;5008500;28;20215;-70
2022/05/17 04:13:43;;;;;;;11.40;6.97;;;;;;;;;;5014048;28;20253;-70
2022/05/17 04:16:09;;;;;;;10.32;6.88;;;;;;;;;;5008871;28;20486;-71
2022/05/17 04:18:34;;;;;;;8.25;6.03;;;;;;;;;;5015827;28;20737;-70
2022/05/17 04:21:00;;;;;;;9.13;6.07;;;;;;;;;;5010378;28;20253;-70
2022/05/17 04:23:25;;;;;;;8.70;5.90;;;;;;;;;;5016693;28;20699;-70
2022/05/17 04:25:51;;;;;;;8.45;6.30;;;;;;;;;;5013387;28;20266;-70
2022/05/17 04:28:17;;;;;;;10.38;7.03;;;;;;;;;;5030161;28;20185;-70
2022/05/17 04:30:43;;;;;;;12.50;6.90;;;;;;;;;;5016099;28;20602;-70
2022/05/17 04:33:09;;;;;;;11.70;6.93;;;;;;;;;;5016090;28;20197;-70
2022/05/17 04:35:34;;;;;;;7.20;6.25;;;;;;;;;;5012737;28;20171;-71
2022/05/17 04:38:00;;;;;;;12.18;7.30;;;;;;;;;;5011755;28;20187;-70
2022/05/17 04:40:25;;;;;;;14.32;7.68;;;;;;;;;;5011802;28;20194;-70
2022/05/17 04:42:53;;;;;;;8.90;6.72;;;;;;;;;;5014128;28;20263;-70
2022/05/17 04:45:18;;;;;;;10.98;6.50;;;;;;;;;;5016100;28;20640;-70
2022/05/17 04:47:44;;;;;;;9.05;6.40;;;;;;;;;;5014701;28;20233;-70
2022/05/17 04:50:11;;;;;;;10.07;6.68;;;;;;;;;;4974875;28;1048480;-70
2022/05/17 04:52:36;;;;;;;8.32;6.28;;;;;;;;;;5015382;28;20179;-70
2022/05/17 04:55:01;;;;;;;11.20;6.78;;;;;;;;;;5013149;28;20254;-70
2022/05/17 04:57:26;;;;;;;10.43;6.40;;;;;;;;;;5012014;28;20183;-69
2022/05/17 04:59:51;;;;;;;8.25;6.13;;;;;;;;;;5012029;28;20216;-70
2022/05/17 05:02:17;;;;;;;12.13;7.03;;;;;;;;;;5013290;28;20286;-71
2022/05/17 05:04:42;;;;;;;13.70;5.97;;;;;;;;;;5013181;28;20580;-69
2022/05/17 05:07:07;;;;;;;8.48;5.82;;;;;;;;;;5013996;28;20467;-71
2022/05/17 05:09:33;;;;;;;14.32;7.88;;;;;;;;;;5010687;28;20206;-71
2022/05/17 05:11:58;;;;;;;15.05;7.07;;;;;;;;;;5015210;28;20207;-72
2022/05/17 05:14:23;;;;;;;6.78;6.10;;;;;;;;;;5013144;28;20179;-72
2022/05/17 05:16:48;;;;;;;10.10;5.72;;;;;;;;;;5014576;28;20239;-71
2022/05/17 05:19:13;;;;;;;9.85;6.38;;;;;;;;;;5017474;28;20236;-70
2022/05/17 05:21:39;;;;;;;8.73;6.33;;;;;;;;;;5022208;28;20753;-70
2022/05/17 05:24:06;;;;;;;9.17;6.60;;;;;;;;;;5019579;28;20471;-70
2022/05/17 05:26:31;;;;;;;13.18;7.10;;;;;;;;;;5013109;28;20511;-70
2022/05/17 05:28:57;;;;;;;12.35;6.25;;;;;;;;;;5013092;28;20275;-71
2022/05/17 05:31:22;;;;;;;7.43;5.90;;;;;;;;;;5018910;28;20309;-70
2022/05/17 05:33:47;;;;;;;10.57;6.73;;;;;;;;;;5013176;28;20428;-70
2022/05/17 05:36:12;;;;;;;9.48;6.47;;;;;;;;;;5016076;28;20452;-69
2022/05/17 05:38:37;;;;;;;9.80;5.38;;;;;;;;;;5007618;28;20570;-70
2022/05/17 05:41:02;;;;;;;8.43;6.15;;;;;;;;;;5010520;28;20198;-70
2022/05/17 05:43:28;;;;;;;8.73;5.60;;;;;;;;;;5011536;28;20645;-71
2022/05/17 05:45:53;;;;;;;7.97;6.50;;;;;;;;;;5012194;28;20245;-71
2022/05/17 05:48:18;;;;;;;8.83;5.90;;;;;;;;;;5012090;28;20205;-71
2022/05/17 05:50:43;;;;;;;10.97;5.77;;;;;;;;;;5026606;28;20466;-70
2022/05/17 05:53:10;;;;;;;8.93;5.65;;;;;;;;;;5018781;28;20462;-70
2022/05/17 05:55:35;;;;;;;9.43;6.32;;;;;;;;;;5014476;28;20317;-69
2022/05/17 05:58:01;;;;;;;9.50;5.53;;;;;;;;;;5015930;28;20242;-71
2022/05/17 06:00:27;;;;;;;9.48;5.75;;;;;;;;;;5009617;28;20194;-70
2022/05/17 06:02:52;;;;;;;7.78;4.93;;;;;;;;;;5020384;28;20176;-70
2022/05/17 06:05:18;;;;;;;9.93;6.03;;;;;;;;;;5013632;28;20186;-70
2022/05/17 06:07:44;;;;;;;9.00;5.70;;;;;;;;;;5012503;28;20656;-70
2022/05/17 06:10:10;;;;;;;8.27;5.15;;;;;;;;;;5011998;28;20707;-70
2022/05/17 06:12:35;;;;;;;10.35;5.20;;;;;;;;;;5014885;28;20312;-70
2022/05/17 06:15:00;;;;;;;8.75;4.75;;;;;;;;;;5015962;28;20297;-70
2022/05/17 06:17:27;;;;;;;7.20;4.20;;;;;;;;;;5012795;28;20187;-71
2022/05/17 06:19:59;;;;;;;10.02;4.13;;;;;;;;;;5016730;28;20190;-70
2022/05/17 06:22:25;;;;;;;7.07;4.07;;;;;;;;;;5011480;28;20613;-70
2022/05/17 06:24:50;;;;;;;8.93;3.92;;;;;;;;;;5012126;28;20190;-70
2022/05/17 06:27:16;;;;;;;8.48;3.92;;;;;;;;;;5010914;28;20215;-70
2022/05/17 06:29:41;;;;;;;6.30;4.10;;;;;;;;;;5013106;28;20194;-71
2022/05/17 06:32:10;;;;;;;8.63;4.30;;;;;;;;;;5016654;28;20252;-71
2022/05/17 06:34:35;;;;;;;5.75;3.60;;;;;;;;;;5016344;28;20968;-70
2022/05/17 06:37:00;;;;;;;9.07;4.73;;;;;;;;;;5012284;28;20211;-70
2022/05/17 06:39:25;;;;;;;8.70;4.00;;;;;;;;;;5012298;28;20451;-71
2022/05/17 06:41:51;;;;;;;7.77;4.00;;;;;;;;;;5012890;28;21027;-71
2022/05/17 06:44:16;;;;;;;4.57;3.35;;;;;;;;;;5017046;28;20424;-71
2022/05/17 06:46:41;;;;;;;7.03;4.28;;;;;;;;;;5012432;28;20537;-71
2022/05/17 06:49:06;;;;;;;9.00;4.33;;;;;;;;;;5013089;28;21931;-71
2022/05/17 06:51:35;;;;;;;6.32;3.88;;;;;;;;;;5011547;28;20471;-71
2022/05/17 06:54:00;;;;;;;6.28;4.35;;;;;;;;;;5010921;28;20435;-71
2022/05/17 06:56:25;;;;;;;9.93;4.40;;;;;;;;;;5010720;28;20262;-71
2022/05/17 06:58:50;;;;;;;7.67;4.27;;;;;;;;;;5014355;28;20198;-71
2022/05/17 07:01:16;;;;;;;7.60;3.90;;;;;;;;;;5010454;28;21010;-71
2022/05/17 07:03:42;;;;;;;6.40;3.85;;;;;;;;;;5017286;28;20618;-71
2022/05/17 07:06:07;;;;;;;4.97;2.92;;;;;;;;;;5014092;28;20170;-71
2022/05/17 07:08:32;;;;;;;5.65;2.80;;;;;;;;;;5014700;28;20197;-71
2022/05/17 07:13:41;;;;;;;4.30;2.72;;;;;;;;;;4997363;28;20435;-71
2022/05/17 07:16:06;;;;;;;7.67;2.90;;;;;;;;;;5005776;28;20194;-71
2022/05/17 07:18:32;;;;;;;4.87;2.70;;;;;;;;;;5002951;28;20914;-70
2022/05/17 07:20:58;;;;;;;5.00;3.40;;;;;;;;;;5006997;28;20487;-71
2022/05/17 07:23:27;;;;;;;7.93;3.70;;;;;;;;;;5008631;28;20214;-70
2022/05/17 07:25:52;;;;;;;7.10;2.97;;;;;;;;;;5007369;28;20180;-70
2022/05/17 07:28:19;;;;;;;5.00;2.90;;;;;;;;;;5008585;28;20194;-70
2022/05/17 07:30:44;;;;;;;5.20;3.03;;;;;;;;;;5008737;28;20219;-70
2022/05/17 07:33:10;;;;;;;6.43;2.90;;;;;;;;;;5011148;28;20190;-71
2022/05/17 07:35:35;;;;;;;6.53;3.45;;;;;;;;;;5012659;28;20174;-71
2022/05/17 07:38:01;;;;;;;6.80;3.30;;;;;;;;;;5002891;28;20584;-70
2022/05/17 07:40:27;;;;;;;9.93;3.38;;;;;;;;;;5009645;28;20455;-70
2022/05/17 07:42:52;;;;;;;3.88;2.85;;;;;;;;;;5006820;28;20921;-70
2022/05/17 07:45:17;;;;;;;9.95;3.15;;;;;;;;;;5010441;28;20194;-70
2022/05/17 07:47:43;;;;;;;8.20;3.67;;;;;;;;;;5003590;28;20183;-71
2022/05/17 07:50:08;;;;;;;4.27;2.80;;;;;;;;;;5009093;28;20187;-71
2022/05/17 07:52:33;;;;;;;5.22;2.97;;;;;;;;;;5007308;28;20450;-71
2022/05/17 07:54:59;;;;;;;4.82;2.83;;;;;;;;;;5006807;28;20270;-71
2022/05/17 07:57:25;;;;;;;6.00;2.80;;;;;;;;;;5010549;28;20269;-70
2022/05/17 07:59:50;;;;;;;6.15;2.20;;;;;;;;;;5008021;28;20226;-71
2022/05/17 08:02:15;;;;;;;4.77;2.33;;;;;;;;;;5016119;28;20208;-71
2022/05/17 08:04:40;;;;;;;7.15;2.28;;;;;;;;;;5021012;28;20462;-71
2022/05/17 08:07:05;;;;;;;5.83;2.40;;;;;;;;;;5012228;28;20262;-70
2022/05/17 08:09:31;;;;;;;5.40;2.20;;;;;;;;;;5009533;28;20463;-71
2022/05/17 08:11:56;;;;;;;4.78;2.38;;;;;;;;;;5010820;28;20703;-71
2022/05/17 08:14:22;;;;;;;8.98;2.60;;;;;;;;;;5009356;28;20194;-70
2022/05/17 08:16:47;;;;;;;5.22;2.40;;;;;;;;;;5009758;28;20186;-70
2022/05/17 08:19:12;;;;;;;5.90;3.15;;;;;;;;;;5010329;28;20183;-70
2022/05/17 08:21:38;;;;;;;5.07;2.33;;;;;;;;;;5011039;28;20708;-69
2022/05/17 08:24:03;;;;;;;6.65;3.20;;;;;;;;;;5010312;28;20186;-69
2022/05/17 08:29:12;;;;;;;8.48;2.40;;;;;;;;;;5011517;28;20256;-70
2022/05/17 08:31:38;;;;;;;4.30;2.03;;;;;;;;;;5010086;28;20198;-70
2022/05/17 08:34:03;;;;;;;6.30;2.45;;;;;;;;;;5011591;28;20213;-70
2022/05/17 08:36:28;;;;;;;5.13;2.35;;;;;;;;;;5011268;28;20228;-70
2022/05/17 08:38:53;;;;;;;6.67;3.73;;;;;;;;;;5005234;28;20341;-70
2022/05/17 08:41:31;;;;;;;5.97;2.03;;;;;;;;;;5007787;28;20465;-70
2022/05/17 08:43:59;;;;;;;6.53;2.33;;;;;;;;;;5009212;28;20424;-70
2022/05/17 08:46:37;;;;;;;7.35;2.88;;;;;;;;;;5013048;28;20378;-70
2022/05/17 08:49:05;;;;;;;4.57;2.55;;;;;;;;;;5016119;28;20206;-70
2022/05/17 08:51:37;;;;;;;4.80;2.42;;;;;;;;;;5022724;28;20912;-70
2022/05/17 08:54:03;;;;;;;6.65;3.75;;;;;;;;;;5006078;28;20233;-70
2022/05/17 08:56:30;;;;;;;4.85;2.65;;;;;;;;;;5007138;28;20187;-70
2022/05/17 08:58:56;;;;;;;6.35;2.97;;;;;;;;;;5006387;28;20183;-70
2022/05/17 09:01:28;;;;;;;7.68;3.25;;;;;;;;;;5006772;28;20202;-70
2022/05/17 09:04:00;;;;;;;5.70;3.10;;;;;;;;;;5013206;28;20194;-71
2022/05/17 09:06:49;;;;;;;5.63;3.22;;;;;;;;;;5014623;28;20244;-70
2022/05/17 09:09:23;;;;;;;6.22;3.55;;;;;;;;;;5017624;28;20282;-70
2022/05/17 09:11:52;;;;;;;5.47;3.42;;;;;;;;;;5007675;28;20273;-70
2022/05/17 09:14:19;;;;;;;7.45;3.90;;;;;;;;;;5011741;28;20190;-70
2022/05/17 09:16:46;;;;;;;6.82;3.45;;;;;;;;;;5010085;28;20185;-70
2022/05/17 09:19:13;;;;;;;7.82;4.63;;;;;;;;;;5011876;28;20175;-70
2022/05/17 09:21:39;;;;;;;8.68;3.75;;;;;;;;;;5009677;28;20585;-70
2022/05/17 09:24:06;;;;;;;7.10;4.18;;;;;;;;;;5008442;28;20270;-70
2022/05/17 09:26:32;;;;;;;7.22;4.82;;;;;;;;;;5013157;28;20247;-70
2022/05/17 09:29:04;;;;;;;5.68;4.00;;;;;;;;;;5012917;28;20206;-70
2022/05/17 09:31:31;;;;;;;5.82;4.18;;;;;;;;;;5011383;28;20198;-70
2022/05/17 09:33:58;;;;;;;5.88;3.78;;;;;;;;;;5021265;28;20720;-70
2022/05/17 09:36:25;;;;;;;7.50;4.28;;;;;;;;;;5011855;28;20269;-69
2022/05/17 09:38:52;;;;;;;7.45;3.78;;;;;;;;;;5011038;28;20616;-70
2022/05/17 09:41:25;;;;;;;7.75;3.92;;;;;;;;;;5010189;28;20203;-70
2022/05/17 09:44:10;;;;;;;5.97;3.83;;;;;;;;;;5010359;28;20175;-69
2022/05/17 09:46:41;;;;;;;5.22;3.60;;;;;;;;;;5011771;28;20190;-70
2022/05/17 09:54:49;;;;;;;7.55;4.45;;;;;;;;;;5011441;28;20221;-70
2022/05/17 09:57:21;;;;;;;5.63;3.70;;;;;;;;;;5010619;28;20539;-69
2022/05/17 09:59:47;;;;;;;5.78;4.20;;;;;;;;;;5012129;28;20270;-70
2022/05/17 10:02:28;;;;;;;7.05;3.88;;;;;;;;;;5010414;28;20266;-70
2022/05/17 10:04:54;;;;;;;6.30;3.70;;;;;;;;;;5013939;28;20183;-70
2022/05/17 10:07:28;;;;;;;6.10;4.22;;;;;;;;;;5012963;28;20189;-70
2022/05/17 10:09:53;;;;;;;5.15;3.92;;;;;;;;;;5005732;28;20199;-70
2022/05/17 10:12:18;;;;;;;6.50;3.53;;;;;;;;;;5008533;28;20857;-70
2022/05/17 10:14:46;;;;;;;9.13;3.67;;;;;;;;;;5008069;28;20178;-70
2022/05/17 10:17:24;;;;;;;6.07;3.28;;;;;;;;;;5003914;28;20665;-69
2022/05/17 10:19:55;;;;;;;4.60;3.33;;;;;;;;;;5010186;28;20182;-70
2022/05/17 10:22:40;;;;;;;7.43;3.95;;;;;;;;;;5008530;28;20285;-70
2022/05/17 10:25:24;;;;;;;7.47;3.90;;;;;;;;;;5013521;28;20182;-70
2022/05/17 10:27:52;;;;;;;9.13;3.72;;;;;;;;;;5012173;28;20181;-70
2022/05/17 10:30:20;;;;;;;6.55;4.05;;;;;;;;;;5008289;28;20684;-70
2022/05/17 10:32:50;;;;;;;7.63;4.60;;;;;;;;;;5008737;28;20199;-70
2022/05/17 10:35:27;;;;;;;5.97;4.28;;;;;;;;;;5007964;28;20179;-70
2022/05/17 10:37:57;;;;;;;5.40;4.15;;;;;;;;;;5011268;28;20192;-70
2022/05/17 10:40:26;;;;;;;6.35;3.78;;;;;;;;;;5008810;28;20206;-69
2022/05/17 10:42:51;;;;;;;7.13;3.80;;;;;;;;;;5009847;28;20207;-70
2022/05/17 10:45:18;;;;;;;8.70;4.17;;;;;;;;;;5011358;28;20243;-70
2022/05/17 10:47:43;;;;;;;9.63;4.18;;;;;;;;;;5006232;28;20544;-70
2022/05/17 10:50:12;;;;;;;5.70;3.43;;;;;;;;;;5010577;28;20721;-70
2022/05/17 10:52:37;;;;;;;5.78;3.80;;;;;;;;;;5019220;28;20223;-70
2022/05/17 10:55:02;;;;;;;5.65;3.75;;;;;;;;;;5011906;28;20187;-70
2022/05/17 10:57:34;;;;;;;5.57;3.60;;;;;;;;;;5009751;28;20737;-70
2022/05/17 11:00:14;;;;;;;6.72;4.07;;;;;;;;;;5008665;28;20191;-71
2022/05/17 11:02:39;;;;;;;5.18;3.63;;;;;;;;;;5010162;28;20257;-71
2022/05/17 11:05:13;;;;;;;8.50;4.28;;;;;;;;;;5007677;28;20665;-70
2022/05/17 11:08:04;;;;;;;8.63;3.17;;;;;;;;;;5013780;28;20186;-70
2022/05/17 11:10:38;;;;;;;8.00;4.05;;;;;;;;;;4982064;28;20235;-70
2022/05/17 11:13:04;;;;;;;6.93;4.32;;;;;;;;;;5019495;28;20263;-70
2022/05/17 11:15:32;;;;;;;6.57;3.97;;;;;;;;;;5012176;28;20228;-70
2022/05/17 11:18:18;;;;;;;7.28;3.33;;;;;;;;;;5007771;28;20957;-70
2022/05/17 11:20:46;;;;;;;5.63;4.00;;;;;;;;;;4994498;28;20226;-70
2022/05/17 11:23:14;;;;;;;9.95;3.92;;;;;;;;;;5006897;28;20282;-70
2022/05/17 11:25:57;;;;;;;6.28;3.60;;;;;;;;;;5006957;28;20617;-70
2022/05/17 11:28:31;;;;;;;7.00;3.70;;;;;;;;;;5008329;28;20190;-71
2022/05/17 11:31:25;;;;;;;8.50;4.22;;;;;;;;;;5001177;28;20702;-70
2022/05/17 11:33:51;;;;;;;6.82;4.15;;;;;;;;;;4999638;28;20196;-70
2022/05/17 11:36:41;;;;;;;6.23;3.80;;;;;;;;;;5006504;28;20562;-71
2022/05/17 11:39:26;;;;;;;10.15;4.40;;;;;;;;;;5006575;28;20174;-71
2022/05/17 11:41:52;;;;;;;6.10;3.97;;;;;;;;;;5010446;28;20211;-71
2022/05/17 11:44:23;;;;;;;5.60;3.45;;;;;;;;;;5008801;28;20232;-70
2022/05/17 11:46:58;;;;;;;8.18;3.65;;;;;;;;;;5010930;28;20183;-70
2022/05/17 11:49:24;;;;;;;6.90;3.33;;;;;;;;;;5007483;28;20198;-70
2022/05/17 11:51:59;;;;;;;6.13;3.95;;;;;;;;;;5009862;28;20213;-70
2022/05/17 11:54:45;;;;;;;6.72;3.95;;;;;;;;;;5004811;28;20200;-70
2022/05/17 11:57:16;;;;;;;8.18;3.83;;;;;;;;;;5009756;28;20178;-70
2022/05/17 12:00:04;;;;;;;5.90;3.50;;;;;;;;;;5009904;28;20228;-71
2022/05/17 12:02:46;;;;;;;6.80;3.90;;;;;;;;;;5010225;28;20306;-71
2022/05/17 12:05:31;;;;;;;9.18;3.35;;;;;;;;;;5005490;28;20599;-71
2022/05/17 12:08:15;;;;;;;8.45;4.05;;;;;;;;;;4993740;28;20190;-70
2022/05/17 12:10:41;;;;;;;9.00;4.30;;;;;;;;;;5003287;28;20278;-71
2022/05/17 12:13:07;;;;;;;7.00;3.08;;;;;;;;;;5009921;28;20599;-70
2022/05/17 12:15:34;;;;;;;7.53;2.90;;;;;;;;;;5008007;28;20209;-70
2022/05/17 12:18:03;;;;;;;6.63;3.38;;;;;;;;;;5004881;28;20209;-71
2022/05/17 12:20:47;;;;;;;7.88;3.30;;;;;;;;;;5006791;28;20918;-70
2022/05/17 12:23:22;;;;;;;6.50;3.35;;;;;;;;;;5008612;28;20682;-70
2022/05/17 12:26:02;;;;;;;5.55;3.17;;;;;;;;;;5004064;28;20180;-70
2022/05/17 12:28:33;;;;;;;5.63;3.38;;;;;;;;;;5001329;28;20269;-70
2022/05/17 12:31:02;;;;;;;4.70;3.15;;;;;;;;;;5007798;28;20217;-70
2022/05/17 12:33:31;;;;;;;7.57;3.10;;;;;;;;;;5004528;28;20170;-71
2022/05/17 12:36:11;;;;;;;4.60;4.07;;;;;;;;;;5004353;28;20264;-70
2022/05/17 12:44:06;;;;;;;4.70;3.00;;;;;;;;;;5007936;28;20688;-70
2022/05/17 12:46:34;;;;;;;6.28;2.58;;;;;;;;;;5012499;28;20183;-70
2022/05/17 12:49:09;;;;;;;5.13;2.55;;;;;;;;;;5006792;28;20354;-71
2022/05/17 12:51:35;;;;;;;5.97;2.80;;;;;;;;;;5009996;28;20213;-70
2022/05/17 12:54:03;;;;;;;7.00;1.83;;;;;;;;;;5012961;28;20313;-70
2022/05/17 12:56:43;;;;;;;5.70;2.33;;;;;;;;;;5026891;28;20184;-70
2022/05/17 12:59:09;;;;;;;4.25;2.08;;;;;;;;;;5011926;28;20175;-71
2022/05/17 13:01:34;;;;;;;5.65;2.60;;;;;;;;;;5010851;28;20716;-71
2022/05/17 13:04:04;;;;;;;4.80;2.20;;;;;;;;;;5007127;28;20530;-70
2022/05/17 13:06:49;;;;;;;3.10;2.25;;;;;;;;;;5011728;28;20447;-70
2022/05/17 13:09:21;;;;;;;7.97;3.00;;;;;;;;;;5011012;28;20221;-71
2022/05/17 13:11:47;;;;;;;6.57;2.95;;;;;;;;;;5010073;28;20199;-70
2022/05/17 13:14:27;;;;;;;5.40;2.63;;;;;;;;;;5009378;28;20757;-70
2022/05/17 13:16:54;;;;;;;5.28;2.95;;;;;;;;;;5010700;28;20551;-70
2022/05/17 13:19:24;;;;;;;8.98;3.70;;;;;;;;;;5005251;28;20253;-71
2022/05/17 13:21:51;;;;;;;6.50;3.63;;;;;;;;;;5005206;28;20202;-71
2022/05/17 13:24:24;;;;;;;3.63;3.00;;;;;;;;;;5004661;28;20274;-71
2022/05/17 13:26:52;;;;;;;4.72;3.03;;;;;;;;;;5010921;28;20174;-71
2022/05/17 13:29:17;;;;;;;6.45;3.40;;;;;;;;;;5007790;28;20658;-71
2022/05/17 13:31:42;;;;;;;5.85;2.95;;;;;;;;;;5008149;28;20220;-71
2022/05/17 13:34:07;;;;;;;6.67;3.60;;;;;;;;;;5006203;28;20294;-71
2022/05/17 13:36:32;;;;;;;4.20;3.10;;;;;;;;;;5008875;28;20183;-71
2022/05/17 13:38:58;;;;;;;4.63;3.47;;;;;;;;;;5009542;28;20214;-71
2022/05/17 13:41:30;;;;;;;4.03;3.63;;;;;;;;;;5006384;28;20440;-70
2022/05/17 13:43:57;;;;;;;7.40;4.32;;;;;;;;;;5008827;28;20508;-70
2022/05/17 13:46:23;;;;;;;5.35;3.25;;;;;;;;;;5008027;28;20316;-70
2022/05/17 13:48:48;;;;;;;7.07;3.97;;;;;;;;;;5005352;28;20178;-70
2022/05/17 13:51:16;;;;;;;5.27;4.20;;;;;;;;;;5012364;28;20211;-70
2022/05/17 13:53:46;;;;;;;8.20;4.38;;;;;;;;;;5006277;28;20918;-70
2022/05/17 13:56:12;;;;;;;8.63;5.03;;;;;;;;;;5010575;28;20261;-70
2022/05/17 13:58:38;;;;;;;7.22;4.03;;;;;;;;;;5003927;28;20674;-70
2022/05/17 14:01:12;;;;;;;6.68;4.65;;;;;;;;;;5009461;28;20203;-70
2022/05/17 14:03:37;;;;;;;8.48;4.25;;;;;;;;;;5009578;28;20185;-70
2022/05/17 14:06:15;;;;;;;8.23;4.07;;;;;;;;;;5009943;28;20179;-70
2022/05/17 14:14:12;;;;;;;5.90;4.45;;;;;;;;;;5009962;28;20675;-70
2022/05/17 14:16:40;;;;;;;9.32;4.93;;;;;;;;;;5010028;28;20187;-70
2022/05/17 14:19:09;;;;;;;7.82;4.40;;;;;;;;;;5010850;28;20174;-70
2022/05/17 14:21:34;;;;;;;7.03;4.25;;;;;;;;;;5001561;28;20198;-71
2022/05/17 14:23:59;;;;;;;6.60;4.30;;;;;;;;;;5005517;28;20178;-70
2022/05/17 14:26:25;;;;;;;6.83;4.50;;;;;;;;;;5006549;28;20719;-71
2022/05/17 14:28:51;;;;;;;8.40;4.97;;;;;;;;;;5012551;28;20873;-71
2022/05/17 14:31:18;;;;;;;7.15;4.07;;;;;;;;;;5003202;28;20198;-71
2022/05/17 14:33:43;;;;;;;9.23;5.20;;;;;;;;;;5006827;28;21871;-70
2022/05/17 14:36:14;;;;;;;7.60;5.03;;;;;;;;;;5011850;28;20175;-71
2022/05/17 14:38:39;;;;;;;6.72;4.40;;;;;;;;;;5024373;28;20608;-70
2022/05/17 14:41:05;;;;;;;5.97;4.00;;;;;;;;;;5011505;28;20221;-70
2022/05/17 14:43:30;;;;;;;6.73;4.23;;;;;;;;;;5006912;28;20182;-70
2022/05/17 14:45:57;;;;;;;6.30;4.23;;;;;;;;;;5012296;28;20470;-70
2022/05/17 14:48:23;;;;;;;5.93;4.93;;;;;;;;;;5007067;28;20277;-69
2022/05/17 14:50:48;;;;;;;7.68;4.43;;;;;;;;;;5007368;28;20763;-70
2022/05/17 14:53:14;;;;;;;8.73;4.75;;;;;;;;;;5009443;28;20788;-70
2022/05/17 14:55:39;;;;;;;7.23;3.77;;;;;;;;;;5009360;28;20559;-71
2022/05/17 14:58:05;;;;;;;9.98;5.88;;;;;;;;;;5009456;28;20261;-70
2022/05/17 15:00:30;;;;;;;10.35;5.90;;;;;;;;;;5007149;28;20210;-70
2022/05/17 15:03:01;;;;;;;8.93;5.57;;;;;;;;;;5013320;28;20179;-70
2022/05/17 15:05:27;;;;;;;8.38;5.40;;;;;;;;;;5002866;28;20198;-70
2022/05/17 15:07:53;;;;;;;6.47;4.78;;;;;;;;;;5013780;28;20178;-71
2022/05/17 15:10:19;;;;;;;11.25;5.47;;;;;;;;;;5008373;28;20604;-71